createdAt,value
2018-12-15T00:00:04.177Z,21.73
2018-12-15T00:02:35.333Z,24.63
2018-12-15T00:05:05.849Z,23.00
2018-12-15T00:07:35.767Z,26.55
2018-12-15T00:10:07.193Z,24.02
2018-12-15T00:12:37.028Z,24.65
2018-12-15T00:15:08.341Z,31.52
2018-12-15T00:17:38.301Z,31.07
2018-12-15T00:20:08.214Z,30.12
2018-12-15T00:22:37.648Z,30.17
2018-12-15T00:25:07.171Z,24.70
2018-12-15T00:27:36.507Z,29.27
2018-12-15T00:30:06.275Z,32.15
2018-12-15T00:32:35.603Z,29.92
2018-12-15T00:35:05.510Z,27.50
2018-12-15T00:37:34.848Z,27.93
2018-12-15T00:40:04.672Z,35.25
2018-12-15T00:42:34.713Z,25.12
2018-12-15T00:45:05.583Z,26.97
2018-12-15T00:47:35.123Z,24.85
2018-12-15T00:50:04.577Z,25.40
2018-12-15T00:52:33.968Z,25.95
2018-12-15T00:55:03.366Z,29.02
2018-12-15T00:57:32.614Z,23.52
2018-12-15T01:00:02.010Z,23.25
2018-12-15T01:02:36.004Z,27.60
2018-12-15T01:05:05.624Z,31.05
2018-12-15T01:07:35.303Z,25.10
2018-12-15T01:10:06.160Z,25.45
2018-12-15T01:12:35.540Z,22.70
2018-12-15T01:15:05.299Z,22.70
2018-12-15T01:17:34.695Z,21.85
2018-12-15T01:20:04.154Z,21.48
2018-12-15T01:22:34.456Z,22.15
2018-12-15T01:25:04.526Z,24.63
2018-12-15T01:27:34.056Z,25.70
2018-12-15T01:30:03.436Z,24.98
2018-12-15T01:32:32.777Z,26.48
2018-12-15T01:35:02.150Z,20.52
2018-12-15T01:37:31.851Z,22.35
2018-12-15T01:40:01.597Z,22.67
2018-12-15T01:42:30.890Z,22.20
2018-12-15T01:45:00.237Z,20.48
2018-12-15T01:47:29.799Z,15.60
2018-12-15T01:49:59.311Z,25.08
2018-12-15T01:52:28.737Z,22.95
2018-12-15T01:54:58.150Z,17.20
2018-12-15T01:57:27.447Z,16.95
2018-12-15T01:59:56.874Z,17.25
2018-12-15T02:02:26.181Z,17.80
2018-12-15T02:04:55.458Z,25.35
2018-12-15T02:07:24.800Z,16.10
2018-12-15T02:09:54.131Z,16.73
2018-12-15T02:12:23.399Z,19.95
2018-12-15T02:14:52.726Z,16.42
2018-12-15T02:17:22.786Z,18.23
2018-12-15T02:19:52.484Z,18.17
2018-12-15T02:22:21.786Z,13.55
2018-12-15T02:24:51.031Z,17.27
2018-12-15T02:27:20.662Z,20.12
2018-12-15T02:29:49.963Z,20.60
2018-12-15T02:32:19.360Z,19.20
2018-12-15T02:34:48.746Z,22.35
2018-12-15T02:37:18.091Z,18.23
2018-12-15T02:39:47.382Z,18.57
2018-12-15T02:42:16.687Z,16.27
2018-12-15T02:44:45.966Z,18.60
2018-12-15T02:47:15.692Z,15.40
2018-12-15T02:49:45.109Z,15.93
2018-12-15T02:52:14.549Z,15.00
2018-12-15T02:54:43.819Z,15.90
2018-12-15T02:57:13.485Z,20.00
2018-12-15T02:59:42.996Z,16.00
2018-12-15T03:02:12.304Z,16.20
2018-12-15T03:04:41.534Z,19.37
2018-12-15T03:07:10.850Z,18.10
2018-12-15T03:09:40.207Z,17.70
2018-12-15T03:12:09.504Z,14.80
2018-12-15T03:14:40.033Z,13.85
2018-12-15T03:17:09.337Z,17.45
2018-12-15T03:19:38.783Z,17.30
2018-12-15T03:22:08.065Z,16.00
2018-12-15T03:24:37.534Z,17.32
2018-12-15T03:27:06.859Z,17.62
2018-12-15T03:29:36.186Z,17.40
2018-12-15T03:32:05.765Z,19.77
2018-12-15T03:34:35.050Z,16.35
2018-12-15T03:37:04.494Z,18.90
2018-12-15T03:39:34.357Z,20.57
2018-12-15T03:42:03.766Z,17.15
2018-12-15T03:44:33.119Z,22.80
2018-12-15T03:47:02.467Z,23.12
2018-12-15T03:49:31.783Z,20.37
2018-12-15T03:52:01.461Z,23.10
2018-12-15T03:54:30.996Z,16.82
2018-12-15T03:57:00.684Z,21.25
2018-12-15T03:59:30.387Z,17.73
2018-12-15T04:01:59.906Z,16.97
2018-12-15T04:04:30.558Z,15.30
2018-12-15T04:07:00.117Z,16.25
2018-12-15T04:09:29.500Z,18.70
2018-12-15T04:11:58.906Z,16.37
2018-12-15T04:14:28.193Z,18.52
2018-12-15T04:16:57.577Z,19.17
2018-12-15T04:19:26.964Z,18.70
2018-12-15T04:22:06.227Z,20.95
2018-12-15T04:24:35.688Z,18.23
2018-12-15T04:27:05.207Z,22.35
2018-12-15T04:29:34.425Z,21.33
2018-12-15T04:32:03.806Z,27.65
2018-12-15T04:34:33.031Z,30.55
2018-12-15T04:37:02.797Z,30.23
2018-12-15T04:39:32.266Z,29.85
2018-12-15T04:42:01.943Z,22.73
2018-12-15T04:44:31.224Z,29.65
2018-12-15T04:47:01.572Z,31.20
2018-12-15T04:49:30.852Z,25.62
2018-12-15T04:52:00.088Z,24.87
2018-12-15T04:54:29.488Z,23.87
2018-12-15T04:56:58.719Z,18.55
2018-12-15T04:59:28.097Z,20.12
2018-12-15T05:01:57.433Z,21.15
2018-12-15T05:04:26.728Z,19.87
2018-12-15T05:06:56.133Z,17.37
2018-12-15T05:09:25.473Z,22.62
2018-12-15T05:11:54.743Z,20.23
2018-12-15T05:14:24.044Z,17.70
2018-12-15T05:16:53.420Z,18.20
2018-12-15T05:19:22.674Z,23.52
2018-12-15T05:21:51.915Z,21.60
2018-12-15T05:24:21.182Z,18.05
2018-12-15T05:26:50.791Z,22.90
2018-12-15T05:29:21.289Z,23.70
2018-12-15T05:31:50.581Z,23.40
2018-12-15T05:34:19.964Z,25.57
2018-12-15T05:39:35.726Z,19.27
2018-12-15T05:42:05.510Z,30.02
2018-12-15T05:44:35.613Z,17.05
2018-12-15T05:47:04.828Z,25.62
2018-12-15T05:49:34.147Z,24.65
2018-12-15T05:52:03.627Z,20.17
2018-12-15T05:54:33.280Z,22.70
2018-12-15T05:57:02.570Z,25.08
2018-12-15T05:59:32.896Z,22.07
2018-12-15T06:02:03.669Z,21.57
2018-12-15T06:04:33.345Z,25.05
2018-12-15T06:07:02.630Z,26.05
2018-12-15T06:09:31.879Z,22.52
2018-12-15T06:12:03.233Z,23.20
2018-12-15T06:14:32.603Z,26.45
2018-12-15T06:17:01.915Z,21.65
2018-12-15T06:19:31.295Z,17.12
2018-12-15T06:22:00.562Z,19.57
2018-12-15T06:24:29.866Z,25.55
2018-12-15T06:27:00.602Z,23.20
2018-12-15T06:29:30.158Z,20.57
2018-12-15T06:31:59.415Z,26.17
2018-12-15T06:34:29.824Z,23.40
2018-12-15T06:36:59.168Z,23.92
2018-12-15T06:39:28.489Z,28.67
2018-12-15T06:42:00.222Z,23.55
2018-12-15T06:44:29.601Z,25.05
2018-12-15T06:46:58.895Z,26.35
2018-12-15T06:49:29.770Z,21.65
2018-12-15T06:51:59.192Z,23.02
2018-12-15T06:54:28.619Z,25.00
2018-12-15T06:56:59.383Z,23.22
2018-12-15T06:59:28.868Z,32.63
2018-12-15T07:02:01.150Z,21.87
2018-12-15T07:04:30.984Z,22.37
2018-12-15T07:07:00.285Z,25.27
2018-12-15T07:09:29.736Z,21.17
2018-12-15T07:11:59.160Z,27.98
2018-12-15T07:14:31.170Z,24.40
2018-12-15T07:17:00.705Z,24.95
2018-12-15T07:19:30.052Z,19.55
2018-12-15T07:21:59.375Z,16.60
2018-12-15T07:24:28.767Z,15.18
2018-12-15T07:26:58.234Z,14.55
2018-12-15T07:29:27.603Z,19.73
2018-12-15T07:31:56.955Z,17.20
2018-12-15T07:34:26.315Z,15.75
2018-12-15T07:36:55.572Z,16.87
2018-12-15T07:39:25.045Z,17.95
2018-12-15T07:41:54.893Z,17.65
2018-12-15T07:44:25.123Z,17.12
2018-12-15T07:46:54.428Z,20.70
2018-12-15T07:49:23.727Z,18.73
2018-12-15T07:51:53.099Z,17.80
2018-12-15T07:54:24.343Z,16.80
2018-12-15T07:56:53.751Z,20.08
2018-12-15T07:59:23.018Z,21.00
2018-12-15T08:01:52.379Z,25.90
2018-12-15T08:04:22.758Z,19.73
2018-12-15T08:06:52.121Z,18.17
2018-12-15T08:09:21.481Z,17.48
2018-12-15T08:11:56.320Z,16.70
2018-12-15T08:14:27.004Z,18.55
2018-12-15T08:16:56.382Z,20.55
2018-12-15T08:19:26.391Z,19.67
2018-12-15T08:21:56.717Z,18.65
2018-12-15T08:24:26.232Z,19.45
2018-12-15T08:26:58.874Z,23.32
2018-12-15T08:29:28.179Z,27.40
2018-12-15T08:31:57.760Z,25.35
2018-12-15T08:34:27.019Z,28.23
2018-12-15T08:36:56.404Z,29.25
2018-12-15T08:39:25.904Z,23.38
2018-12-15T08:41:55.371Z,24.35
2018-12-15T08:44:24.693Z,24.60
2018-12-15T08:46:54.111Z,33.10
2018-12-15T08:49:27.120Z,29.87
2018-12-15T08:51:56.561Z,32.38
2018-12-15T08:54:25.871Z,30.57
2018-12-15T08:57:01.398Z,27.52
2018-12-15T08:59:30.783Z,25.85
2018-12-15T09:02:00.846Z,34.13
2018-12-15T09:04:30.658Z,29.55
2018-12-15T09:06:59.924Z,40.05
2018-12-15T09:09:30.827Z,29.15
2018-12-15T09:12:00.073Z,28.83
2018-12-15T09:14:30.681Z,28.65
2018-12-15T09:16:59.949Z,30.35
2018-12-15T09:19:29.773Z,39.50
2018-12-15T09:22:00.167Z,28.73
2018-12-15T09:24:29.895Z,34.88
2018-12-15T09:26:59.775Z,32.35
2018-12-15T09:29:30.202Z,33.33
2018-12-15T09:31:59.515Z,33.18
2018-12-15T09:34:28.900Z,36.42
2018-12-15T09:36:59.188Z,39.55
2018-12-15T09:39:31.253Z,36.38
2018-12-15T09:42:02.145Z,34.18
2018-12-15T09:44:32.535Z,32.95
2018-12-15T09:47:01.945Z,32.78
2018-12-15T09:49:31.297Z,34.45
2018-12-15T09:52:11.494Z,31.48
2018-12-15T09:55:01.508Z,34.05
2018-12-15T09:57:39.785Z,31.07
2018-12-15T10:00:09.479Z,30.27
2018-12-15T10:02:38.849Z,42.95
2018-12-15T10:05:08.897Z,33.58
2018-12-15T10:07:38.128Z,40.48
2018-12-15T10:10:07.735Z,36.68
2018-12-15T10:12:37.121Z,29.12
2018-12-15T10:15:06.494Z,38.13
2018-12-15T10:17:35.963Z,33.78
2018-12-15T10:20:05.914Z,31.68
2018-12-15T10:22:35.203Z,35.05
2018-12-15T10:25:06.480Z,30.20
2018-12-15T10:27:39.090Z,27.60
2018-12-15T10:30:14.040Z,27.50
2018-12-15T10:32:50.068Z,28.10
2018-12-15T10:35:20.699Z,31.60
2018-12-15T10:37:49.999Z,24.67
2018-12-15T10:40:20.353Z,27.93
2018-12-15T10:42:52.279Z,26.95
2018-12-15T10:45:22.572Z,22.55
2018-12-15T10:47:51.878Z,24.40
2018-12-15T10:50:22.034Z,27.50
2018-12-15T10:52:54.552Z,25.65
2018-12-15T10:55:24.422Z,25.68
2018-12-15T10:57:53.703Z,25.57
2018-12-15T11:00:29.520Z,25.02
2018-12-15T11:03:03.324Z,30.48
2018-12-15T11:05:33.501Z,27.02
2018-12-15T11:08:04.164Z,39.55
2018-12-15T11:10:33.640Z,22.45
2018-12-15T11:13:04.842Z,18.20
2018-12-15T11:15:37.519Z,17.17
2018-12-15T11:18:07.697Z,21.37
2018-12-15T11:20:37.226Z,22.35
2018-12-15T11:23:07.797Z,29.65
2018-12-15T11:25:38.991Z,21.15
2018-12-15T11:28:08.463Z,16.85
2018-12-15T11:30:41.605Z,21.93
2018-12-15T11:33:16.336Z,20.08
2018-12-15T11:35:46.526Z,15.80
2018-12-15T11:38:17.507Z,20.02
2018-12-15T11:40:49.884Z,25.05
2018-12-15T11:43:23.309Z,25.35
2018-12-15T11:45:53.034Z,22.17
2018-12-15T11:48:23.078Z,17.62
2018-12-15T11:50:57.846Z,21.45
2018-12-15T11:53:36.726Z,19.30
2018-12-15T11:56:07.992Z,16.30
2018-12-15T11:58:38.804Z,17.35
2018-12-15T12:01:12.701Z,18.20
2018-12-15T12:03:42.340Z,21.70
2018-12-15T12:06:12.175Z,21.00
2018-12-15T12:08:44.166Z,22.73
2018-12-15T12:11:14.661Z,20.32
2018-12-15T12:13:44.253Z,18.77
2018-12-15T12:16:14.260Z,25.20
2018-12-15T12:18:43.600Z,20.55
2018-12-15T12:21:13.009Z,17.40
2018-12-15T12:23:44.114Z,22.50
2018-12-15T12:26:13.857Z,19.45
2018-12-15T12:28:43.430Z,16.97
2018-12-15T12:31:13.713Z,32.80
2018-12-15T12:33:43.424Z,16.62
2018-12-15T12:36:12.908Z,13.98
2018-12-15T12:38:48.209Z,15.80
2018-12-15T12:41:18.706Z,16.40
2018-12-15T12:43:48.360Z,17.42
2018-12-15T12:46:17.770Z,16.35
2018-12-15T12:48:46.984Z,16.25
2018-12-15T12:51:16.229Z,18.15
2018-12-15T12:53:48.302Z,24.15
2018-12-15T12:56:18.047Z,17.65
2018-12-15T12:58:47.579Z,18.60
2018-12-15T13:01:17.238Z,21.20
2018-12-15T13:03:47.410Z,16.40
2018-12-15T13:06:19.581Z,17.77
2018-12-15T13:08:50.758Z,17.23
2018-12-15T13:11:22.016Z,19.25
2018-12-15T13:13:53.594Z,21.42
2018-12-15T13:16:23.538Z,35.35
2018-12-15T13:18:56.051Z,31.42
2018-12-15T13:21:27.673Z,26.20
2018-12-15T13:23:57.794Z,20.95
2018-12-15T13:26:30.555Z,25.00
2018-12-15T13:29:01.834Z,26.60
2018-12-15T13:31:32.520Z,32.25
2018-12-15T13:34:08.292Z,21.93
2018-12-15T13:36:40.410Z,23.30
2018-12-15T13:39:14.942Z,23.12
2018-12-15T13:41:48.441Z,30.32
2018-12-15T13:44:23.647Z,27.65
2018-12-15T13:47:00.213Z,33.13
2018-12-15T14:05:28.180Z,28.80
2018-12-15T14:08:01.864Z,30.77
2018-12-15T14:10:34.331Z,29.60
2018-12-15T14:13:20.644Z,23.80
2018-12-15T14:15:58.293Z,29.65
2018-12-15T14:18:31.457Z,18.85
2018-12-15T14:21:12.264Z,20.37
2018-12-15T14:23:49.954Z,21.35
2018-12-15T14:26:22.336Z,19.98
2018-12-15T14:28:54.541Z,24.55
2018-12-15T14:34:11.153Z,21.37
2018-12-15T14:36:52.428Z,20.80
2018-12-15T14:39:23.581Z,23.35
2018-12-15T14:41:54.361Z,18.02
2018-12-15T14:44:24.054Z,18.73
2018-12-15T14:46:54.308Z,14.43
2018-12-15T14:49:24.420Z,19.80
2018-12-15T14:51:54.289Z,16.90
2018-12-15T14:54:24.103Z,36.03
2018-12-15T14:56:57.474Z,11.97
2018-12-15T14:59:27.176Z,16.65
2018-12-15T15:01:58.031Z,12.85
2018-12-15T15:04:28.807Z,16.25
2018-12-15T15:07:00.185Z,13.78
2018-12-15T15:09:31.494Z,15.10
2018-12-15T15:12:06.492Z,16.20
2018-12-15T15:14:36.469Z,12.78
2018-12-15T15:17:06.462Z,19.37
2018-12-15T15:19:36.482Z,15.25
2018-12-15T15:22:10.986Z,27.77
2018-12-15T15:24:43.687Z,16.37
2018-12-15T15:27:16.969Z,13.80
2018-12-15T15:29:50.210Z,17.73
2018-12-15T15:32:20.968Z,11.75
2018-12-15T15:34:52.715Z,12.15
2018-12-15T15:37:22.405Z,10.25
2018-12-15T15:39:52.678Z,14.03
2018-12-15T15:42:22.598Z,13.55
2018-12-15T15:44:51.912Z,11.10
2018-12-15T15:47:21.306Z,18.50
2018-12-15T15:49:50.671Z,25.77
2018-12-15T15:52:20.176Z,23.52
2018-12-15T15:54:49.619Z,23.05
2018-12-15T15:57:18.901Z,22.27
2018-12-15T15:59:48.123Z,18.42
2018-12-15T16:02:17.651Z,16.35
2018-12-15T16:04:47.300Z,17.02
2018-12-15T16:07:16.596Z,20.08
2018-12-15T16:09:47.145Z,18.23
2018-12-15T16:12:16.456Z,16.15
2018-12-15T16:14:45.802Z,18.52
2018-12-15T16:17:15.244Z,19.27
2018-12-15T16:19:44.821Z,18.77
2018-12-15T16:22:14.159Z,17.00
2018-12-15T16:24:44.544Z,15.13
2018-12-15T16:27:13.957Z,15.43
2018-12-15T16:29:43.296Z,17.27
2018-12-15T16:32:12.609Z,15.88
2018-12-15T16:34:41.898Z,18.02
2018-12-15T16:37:11.490Z,15.75
2018-12-15T16:39:40.862Z,15.18
2018-12-15T16:42:10.466Z,14.95
2018-12-15T16:44:41.104Z,17.98
2018-12-15T16:47:10.399Z,16.65
2018-12-15T16:49:39.726Z,17.50
2018-12-15T16:52:09.255Z,37.90
2018-12-15T16:54:38.861Z,20.40
2018-12-15T16:57:08.159Z,20.20
2018-12-15T16:59:37.837Z,21.50
2018-12-15T17:02:07.260Z,19.12
2018-12-15T17:04:37.627Z,19.20
2018-12-15T17:07:07.016Z,24.55
2018-12-15T17:09:36.341Z,19.90
2018-12-15T17:12:05.720Z,26.75
2018-12-15T17:14:36.688Z,20.30
2018-12-15T17:17:09.617Z,21.73
2018-12-15T17:19:38.985Z,19.85
2018-12-15T17:22:08.289Z,20.65
2018-12-15T17:24:37.693Z,24.92
2018-12-15T17:27:07.057Z,21.10
2018-12-15T17:29:36.361Z,20.37
2018-12-15T17:32:05.628Z,19.00
2018-12-15T17:34:35.237Z,38.40
2018-12-15T17:37:04.576Z,27.90
2018-12-15T17:39:34.342Z,21.40
2018-12-15T17:42:03.932Z,25.45
2018-12-15T17:44:33.283Z,22.10
2018-12-15T17:47:02.690Z,26.33
2018-12-15T17:49:32.182Z,21.45
2018-12-15T17:52:01.650Z,22.70
2018-12-15T17:54:30.995Z,22.93
2018-12-15T17:57:00.514Z,22.75
2018-12-15T17:59:29.842Z,19.00
2018-12-15T18:01:59.662Z,16.85
2018-12-15T18:04:29.000Z,23.27
2018-12-15T18:06:58.559Z,17.65
2018-12-15T18:09:28.103Z,22.93
2018-12-15T18:11:57.380Z,41.42
2018-12-15T18:14:26.704Z,23.70
2018-12-15T18:16:56.247Z,18.32
2018-12-15T18:19:25.911Z,22.85
2018-12-15T18:21:55.492Z,26.85
2018-12-15T18:24:24.773Z,21.20
2018-12-15T18:26:54.592Z,18.90
2018-12-15T18:29:24.003Z,17.23
2018-12-15T18:31:53.760Z,15.75
2018-12-15T18:34:23.185Z,14.15
2018-12-15T18:36:52.536Z,16.05
2018-12-15T18:39:21.959Z,19.10
2018-12-15T18:41:52.559Z,18.02
2018-12-15T18:44:21.849Z,20.62
2018-12-15T18:49:31.641Z,18.85
2018-12-15T18:52:01.583Z,14.73
2018-12-15T18:54:31.567Z,22.30
2018-12-15T18:57:01.179Z,19.48
2018-12-15T18:59:30.711Z,21.20
2018-12-15T19:02:02.234Z,15.95
2018-12-15T19:04:31.515Z,29.23
2018-12-15T19:07:01.064Z,15.90
2018-12-15T19:09:30.969Z,28.07
2018-12-15T19:12:00.722Z,21.85
2018-12-15T19:14:30.154Z,24.90
2018-12-15T19:16:59.433Z,20.45
2018-12-15T19:19:28.944Z,17.90
2018-12-15T19:21:58.249Z,22.95
2018-12-15T19:24:28.638Z,19.75
2018-12-15T19:26:57.921Z,28.50
2018-12-15T19:29:27.248Z,18.62
2018-12-15T19:31:56.598Z,21.02
2018-12-15T19:34:25.831Z,21.02
2018-12-15T19:36:55.194Z,18.75
2018-12-15T19:39:24.560Z,20.90
2018-12-15T19:41:54.043Z,14.98
2018-12-15T19:44:23.412Z,20.62
2018-12-15T19:46:52.647Z,20.92
2018-12-15T19:49:22.259Z,22.15
2018-12-15T19:51:52.658Z,24.32
2018-12-15T19:54:22.908Z,20.02
2018-12-15T19:56:52.312Z,19.82
2018-12-15T19:59:21.550Z,28.85
2018-12-15T20:01:50.933Z,23.20
2018-12-15T20:04:20.865Z,22.98
2018-12-15T20:06:50.508Z,20.55
2018-12-15T20:09:20.262Z,22.58
2018-12-15T20:11:50.127Z,25.52
2018-12-15T20:14:19.685Z,25.62
2018-12-15T20:16:49.077Z,21.45
2018-12-15T20:19:19.790Z,24.43
2018-12-15T20:21:49.997Z,18.82
2018-12-15T20:24:20.740Z,25.25
2018-12-15T20:26:50.173Z,24.90
2018-12-15T20:29:19.592Z,25.08
2018-12-15T20:31:49.235Z,21.82
2018-12-15T20:34:22.238Z,26.82
2018-12-15T20:36:51.561Z,29.92
2018-12-15T20:39:20.852Z,23.55
2018-12-15T20:41:50.131Z,25.70
2018-12-15T20:44:19.885Z,22.77
2018-12-15T20:46:49.345Z,20.95
2018-12-15T20:49:20.149Z,24.43
2018-12-15T20:51:49.575Z,25.80
2018-12-15T20:54:21.347Z,31.93
2018-12-15T20:56:50.687Z,29.57
2018-12-15T20:59:19.990Z,21.80
2018-12-15T21:01:49.777Z,22.00
2018-12-15T21:04:19.890Z,23.35
2018-12-15T21:06:49.303Z,21.95
2018-12-15T21:09:18.622Z,24.12
2018-12-15T21:11:48.040Z,19.42
2018-12-15T21:14:17.329Z,18.17
2018-12-15T21:16:46.767Z,20.17
2018-12-15T21:19:16.344Z,18.80
2018-12-15T21:21:49.418Z,17.73
2018-12-15T21:24:18.761Z,20.17
2018-12-15T21:26:49.309Z,19.45
2018-12-15T21:29:18.693Z,17.35
2018-12-15T21:31:48.116Z,15.35
2018-12-15T21:34:17.561Z,18.42
2018-12-15T21:36:47.003Z,19.07
2018-12-15T21:39:16.452Z,20.80
2018-12-15T21:41:46.013Z,19.15
2018-12-15T21:44:15.809Z,16.45
2018-12-15T21:46:45.233Z,20.17
2018-12-15T21:49:14.453Z,21.45
2018-12-15T21:51:44.183Z,22.35
2018-12-15T21:54:13.681Z,19.37
2018-12-15T21:56:43.409Z,23.75
2018-12-15T21:59:12.700Z,21.37
2018-12-15T22:01:41.938Z,19.42
2018-12-15T22:04:11.596Z,17.80
2018-12-15T22:06:41.136Z,18.95
2018-12-15T22:09:10.381Z,21.68
2018-12-15T22:11:39.843Z,27.15
2018-12-15T22:14:09.159Z,18.75
2018-12-15T22:16:38.463Z,22.75
2018-12-15T22:19:07.763Z,21.90
2018-12-15T22:21:37.368Z,19.60
2018-12-15T22:24:06.841Z,21.07
2018-12-15T22:26:36.225Z,25.92
2018-12-15T22:29:05.505Z,21.23
2018-12-15T22:31:35.703Z,19.07
2018-12-15T22:34:05.250Z,18.70
2018-12-15T22:36:34.669Z,17.17
2018-12-15T22:39:05.736Z,21.30
2018-12-15T22:41:35.103Z,22.27
2018-12-15T22:44:05.658Z,16.90
2018-12-15T22:46:35.300Z,24.65
2018-12-15T22:49:04.554Z,14.93
2018-12-15T22:51:35.054Z,18.80
2018-12-15T22:54:05.055Z,18.35
2018-12-15T22:56:34.323Z,21.23
2018-12-15T22:59:03.693Z,22.82
2018-12-15T23:01:37.408Z,25.77
2018-12-15T23:06:42.377Z,25.10
2018-12-15T23:09:11.838Z,18.70
2018-12-15T23:11:41.181Z,23.75
2018-12-15T23:14:10.746Z,19.32
2018-12-15T23:16:40.095Z,18.15
2018-12-15T23:19:09.436Z,20.88
2018-12-15T23:21:38.878Z,21.75
2018-12-15T23:24:08.195Z,18.92
2018-12-15T23:26:37.634Z,18.65
2018-12-15T23:29:07.326Z,19.40
2018-12-15T23:31:37.059Z,21.70
2018-12-15T23:34:06.323Z,17.15
2018-12-15T23:36:35.899Z,19.40
2018-12-15T23:39:07.871Z,20.32
2018-12-15T23:41:37.413Z,21.87
2018-12-15T23:44:06.653Z,20.15
2018-12-15T23:46:36.239Z,18.10
2018-12-15T23:49:05.718Z,22.13
2018-12-15T23:51:34.990Z,21.00
2018-12-15T23:54:04.259Z,20.82
2018-12-15T23:56:33.729Z,19.05
2018-12-15T23:59:03.025Z,18.70
